sensor_id;sensor_type;location;lat;lon;timestamp;P1;durP1;ratioP1;P2;durP2;ratioP2
70981;SDS011;58640;51.320;9.456;2023-04-28T00:00:42;9.60;;;4.57;;
70981;SDS011;58640;51.320;9.456;2023-04-28T00:03:08;9.50;;;5.10;;
70981;SDS011;58640;51.320;9.456;2023-04-28T00:05:33;7.97;;;5.38;;
70981;SDS011;58640;51.320;9.456;2023-04-28T00:07:59;8.45;;;4.75;;
70981;SDS011;58640;51.320;9.456;2023-04-28T00:10:24;8.93;;;5.07;;
70981;SDS011;58640;51.320;9.456;2023-04-28T00:12:49;7.43;;;4.43;;
70981;SDS011;58640;51.320;9.456;2023-04-28T00:15:15;12.23;;;5.07;;
70981;SDS011;58640;51.320;9.456;2023-04-28T00:17:40;6.65;;;4.72;;
70981;SDS011;58640;51.320;9.456;2023-04-28T00:20:07;11.05;;;4.80;;
70981;SDS011;58640;51.320;9.456;2023-04-28T00:22:33;8.65;;;5.15;;
70981;SDS011;58640;51.320;9.456;2023-04-28T00:24:58;11.75;;;4.78;;
70981;SDS011;58640;51.320;9.456;2023-04-28T00:27:23;9.93;;;5.00;;
70981;SDS011;58640;51.320;9.456;2023-04-28T00:29:49;8.02;;;4.88;;
70981;SDS011;58640;51.320;9.456;2023-04-28T00:32:14;7.22;;;4.80;;
70981;SDS011;58640;51.320;9.456;2023-04-28T00:34:40;14.00;;;5.90;;
70981;SDS011;58640;51.320;9.456;2023-04-28T00:37:05;14.63;;;5.65;;
70981;SDS011;58640;51.320;9.456;2023-04-28T00:39:30;16.67;;;4.50;;
70981;SDS011;58640;51.320;9.456;2023-04-28T00:41:56;7.13;;;4.90;;
70981;SDS011;58640;51.320;9.456;2023-04-28T00:44:21;10.10;;;5.15;;
70981;SDS011;58640;51.320;9.456;2023-04-28T00:46:47;11.70;;;6.05;;
70981;SDS011;58640;51.320;9.456;2023-04-28T00:49:13;8.18;;;5.15;;
70981;SDS011;58640;51.320;9.456;2023-04-28T00:51:40;7.13;;;4.60;;
70981;SDS011;58640;51.320;9.456;2023-04-28T00:54:05;12.85;;;5.40;;
70981;SDS011;58640;51.320;9.456;2023-04-28T00:56:31;8.52;;;4.72;;
70981;SDS011;58640;51.320;9.456;2023-04-28T00:58:57;6.93;;;4.80;;
70981;SDS011;58640;51.320;9.456;2023-04-28T01:01:23;8.82;;;5.28;;
70981;SDS011;58640;51.320;9.456;2023-04-28T01:03:48;15.00;;;5.50;;
70981;SDS011;58640;51.320;9.456;2023-04-28T01:06:14;17.95;;;5.13;;
70981;SDS011;58640;51.320;9.456;2023-04-28T01:08:40;9.32;;;5.47;;
70981;SDS011;58640;51.320;9.456;2023-04-28T01:11:06;12.45;;;5.40;;
70981;SDS011;58640;51.320;9.456;2023-04-28T01:13:34;13.13;;;5.40;;
70981;SDS011;58640;51.320;9.456;2023-04-28T01:15:59;8.18;;;5.13;;
70981;SDS011;58640;51.320;9.456;2023-04-28T01:18:25;10.38;;;5.55;;
70981;SDS011;58640;51.320;9.456;2023-04-28T01:20:50;9.43;;;5.53;;
70981;SDS011;58640;51.320;9.456;2023-04-28T01:23:16;10.18;;;5.88;;
70981;SDS011;58640;51.320;9.456;2023-04-28T01:25:42;7.50;;;5.43;;
70981;SDS011;58640;51.320;9.456;2023-04-28T01:28:08;7.78;;;4.97;;
70981;SDS011;58640;51.320;9.456;2023-04-28T01:30:34;11.38;;;4.90;;
70981;SDS011;58640;51.320;9.456;2023-04-28T01:33:00;12.77;;;4.78;;
70981;SDS011;58640;51.320;9.456;2023-04-28T01:35:26;8.18;;;4.25;;
70981;SDS011;58640;51.320;9.456;2023-04-28T01:37:51;13.95;;;5.63;;
70981;SDS011;58640;51.320;9.456;2023-04-28T01:40:17;14.38;;;6.32;;
70981;SDS011;58640;51.320;9.456;2023-04-28T01:42:43;10.32;;;5.88;;
70981;SDS011;58640;51.320;9.456;2023-04-28T01:45:08;15.70;;;6.85;;
70981;SDS011;58640;51.320;9.456;2023-04-28T01:47:34;10.48;;;7.10;;
70981;SDS011;58640;51.320;9.456;2023-04-28T01:49:59;13.73;;;6.63;;
70981;SDS011;58640;51.320;9.456;2023-04-28T01:52:25;12.73;;;6.07;;
70981;SDS011;58640;51.320;9.456;2023-04-28T01:54:51;16.35;;;7.43;;
70981;SDS011;58640;51.320;9.456;2023-04-28T01:57:17;10.68;;;5.75;;
70981;SDS011;58640;51.320;9.456;2023-04-28T01:59:43;10.82;;;6.10;;
70981;SDS011;58640;51.320;9.456;2023-04-28T02:02:08;12.63;;;5.70;;
70981;SDS011;58640;51.320;9.456;2023-04-28T02:04:33;13.30;;;6.80;;
70981;SDS011;58640;51.320;9.456;2023-04-28T02:06:59;13.02;;;6.00;;
70981;SDS011;58640;51.320;9.456;2023-04-28T02:09:24;12.63;;;6.35;;
70981;SDS011;58640;51.320;9.456;2023-04-28T02:11:50;12.52;;;6.40;;
70981;SDS011;58640;51.320;9.456;2023-04-28T02:14:15;12.63;;;6.47;;
70981;SDS011;58640;51.320;9.456;2023-04-28T02:16:41;12.45;;;6.50;;
70981;SDS011;58640;51.320;9.456;2023-04-28T02:19:06;10.70;;;6.47;;
70981;SDS011;58640;51.320;9.456;2023-04-28T02:21:31;12.20;;;5.78;;
70981;SDS011;58640;51.320;9.456;2023-04-28T02:23:57;11.85;;;5.82;;
70981;SDS011;58640;51.320;9.456;2023-04-28T02:26:22;8.98;;;5.28;;
70981;SDS011;58640;51.320;9.456;2023-04-28T02:28:48;9.95;;;5.13;;
70981;SDS011;58640;51.320;9.456;2023-04-28T02:31:14;12.93;;;5.30;;
70981;SDS011;58640;51.320;9.456;2023-04-28T02:33:39;12.13;;;5.85;;
70981;SDS011;58640;51.320;9.456;2023-04-28T02:36:06;10.52;;;6.30;;
70981;SDS011;58640;51.320;9.456;2023-04-28T02:38:32;10.80;;;6.15;;
70981;SDS011;58640;51.320;9.456;2023-04-28T02:41:01;9.52;;;6.18;;
70981;SDS011;58640;51.320;9.456;2023-04-28T02:43:29;7.50;;;5.38;;
70981;SDS011;58640;51.320;9.456;2023-04-28T02:45:57;10.07;;;6.00;;
70981;SDS011;58640;51.320;9.456;2023-04-28T02:48:23;9.50;;;5.72;;
70981;SDS011;58640;51.320;9.456;2023-04-28T02:50:49;11.55;;;5.82;;
70981;SDS011;58640;51.320;9.456;2023-04-28T02:53:15;12.52;;;6.03;;
70981;SDS011;58640;51.320;9.456;2023-04-28T02:55:40;9.75;;;5.65;;
70981;SDS011;58640;51.320;9.456;2023-04-28T02:58:06;8.60;;;5.18;;
70981;SDS011;58640;51.320;9.456;2023-04-28T03:00:31;12.88;;;6.07;;
70981;SDS011;58640;51.320;9.456;2023-04-28T03:02:56;9.02;;;5.47;;
70981;SDS011;58640;51.320;9.456;2023-04-28T03:05:22;10.98;;;5.40;;
70981;SDS011;58640;51.320;9.456;2023-04-28T03:07:48;9.90;;;5.35;;
70981;SDS011;58640;51.320;9.456;2023-04-28T03:10:13;15.52;;;6.18;;
70981;SDS011;58640;51.320;9.456;2023-04-28T03:12:38;12.13;;;5.13;;
70981;SDS011;58640;51.320;9.456;2023-04-28T03:15:04;17.77;;;6.55;;
70981;SDS011;58640;51.320;9.456;2023-04-28T03:17:32;10.55;;;5.20;;
70981;SDS011;58640;51.320;9.456;2023-04-28T03:19:58;10.57;;;5.70;;
70981;SDS011;58640;51.320;9.456;2023-04-28T03:22:23;6.90;;;5.65;;
70981;SDS011;58640;51.320;9.456;2023-04-28T03:24:48;9.93;;;5.97;;
70981;SDS011;58640;51.320;9.456;2023-04-28T03:27:14;10.60;;;6.85;;
70981;SDS011;58640;51.320;9.456;2023-04-28T03:29:39;13.55;;;7.13;;
70981;SDS011;58640;51.320;9.456;2023-04-28T03:32:04;17.23;;;7.15;;
70981;SDS011;58640;51.320;9.456;2023-04-28T03:34:30;15.63;;;7.63;;
70981;SDS011;58640;51.320;9.456;2023-04-28T03:36:55;15.20;;;7.60;;
70981;SDS011;58640;51.320;9.456;2023-04-28T03:39:21;20.15;;;7.68;;
70981;SDS011;58640;51.320;9.456;2023-04-28T03:41:46;19.65;;;7.78;;
70981;SDS011;58640;51.320;9.456;2023-04-28T03:44:12;9.27;;;6.43;;
70981;SDS011;58640;51.320;9.456;2023-04-28T03:46:37;10.23;;;6.13;;
70981;SDS011;58640;51.320;9.456;2023-04-28T03:49:04;11.00;;;6.50;;
70981;SDS011;58640;51.320;9.456;2023-04-28T03:51:30;14.13;;;7.47;;
70981;SDS011;58640;51.320;9.456;2023-04-28T03:53:57;10.95;;;5.97;;
70981;SDS011;58640;51.320;9.456;2023-04-28T03:56:22;9.73;;;5.85;;
70981;SDS011;58640;51.320;9.456;2023-04-28T03:58:48;14.15;;;7.68;;
70981;SDS011;58640;51.320;9.456;2023-04-28T04:01:13;8.63;;;6.25;;
70981;SDS011;58640;51.320;9.456;2023-04-28T04:03:38;10.05;;;6.68;;
70981;SDS011;58640;51.320;9.456;2023-04-28T04:06:04;11.18;;;6.28;;
70981;SDS011;58640;51.320;9.456;2023-04-28T04:08:30;9.70;;;6.18;;
70981;SDS011;58640;51.320;9.456;2023-04-28T04:10:56;9.93;;;6.50;;
70981;SDS011;58640;51.320;9.456;2023-04-28T04:13:22;8.48;;;5.57;;
70981;SDS011;58640;51.320;9.456;2023-04-28T04:15:47;10.25;;;6.35;;
70981;SDS011;58640;51.320;9.456;2023-04-28T04:18:14;11.63;;;6.28;;
70981;SDS011;58640;51.320;9.456;2023-04-28T04:20:39;11.10;;;6.13;;
70981;SDS011;58640;51.320;9.456;2023-04-28T04:23:05;13.30;;;6.53;;
70981;SDS011;58640;51.320;9.456;2023-04-28T04:25:30;13.73;;;7.28;;
70981;SDS011;58640;51.320;9.456;2023-04-28T04:27:56;8.80;;;7.25;;
70981;SDS011;58640;51.320;9.456;2023-04-28T04:30:22;9.98;;;7.43;;
70981;SDS011;58640;51.320;9.456;2023-04-28T04:32:47;12.27;;;7.20;;
70981;SDS011;58640;51.320;9.456;2023-04-28T04:35:13;16.38;;;7.60;;
70981;SDS011;58640;51.320;9.456;2023-04-28T04:37:38;10.75;;;7.15;;
70981;SDS011;58640;51.320;9.456;2023-04-28T04:40:04;15.45;;;7.00;;
70981;SDS011;58640;51.320;9.456;2023-04-28T04:42:32;11.82;;;6.55;;
70981;SDS011;58640;51.320;9.456;2023-04-28T04:44:57;8.35;;;6.85;;
70981;SDS011;58640;51.320;9.456;2023-04-28T04:47:23;14.30;;;7.35;;
70981;SDS011;58640;51.320;9.456;2023-04-28T04:49:48;9.55;;;6.47;;
70981;SDS011;58640;51.320;9.456;2023-04-28T04:52:14;9.55;;;6.63;;
70981;SDS011;58640;51.320;9.456;2023-04-28T04:54:39;11.43;;;7.47;;
70981;SDS011;58640;51.320;9.456;2023-04-28T04:57:05;10.88;;;6.88;;
70981;SDS011;58640;51.320;9.456;2023-04-28T04:59:31;10.10;;;7.35;;
70981;SDS011;58640;51.320;9.456;2023-04-28T05:01:56;10.07;;;7.45;;
70981;SDS011;58640;51.320;9.456;2023-04-28T05:04:22;12.80;;;7.20;;
70981;SDS011;58640;51.320;9.456;2023-04-28T05:06:47;12.32;;;7.63;;
70981;SDS011;58640;51.320;9.456;2023-04-28T05:09:12;20.95;;;7.90;;
70981;SDS011;58640;51.320;9.456;2023-04-28T05:11:38;11.25;;;7.30;;
70981;SDS011;58640;51.320;9.456;2023-04-28T05:14:03;15.90;;;8.07;;
70981;SDS011;58640;51.320;9.456;2023-04-28T05:16:28;10.30;;;7.97;;
70981;SDS011;58640;51.320;9.456;2023-04-28T05:18:54;14.02;;;8.10;;
70981;SDS011;58640;51.320;9.456;2023-04-28T05:21:19;13.80;;;7.97;;
70981;SDS011;58640;51.320;9.456;2023-04-28T05:23:45;10.57;;;7.15;;
70981;SDS011;58640;51.320;9.456;2023-04-28T05:26:10;14.02;;;8.07;;
70981;SDS011;58640;51.320;9.456;2023-04-28T05:28:36;11.05;;;6.55;;
70981;SDS011;58640;51.320;9.456;2023-04-28T05:31:03;11.82;;;7.13;;
70981;SDS011;58640;51.320;9.456;2023-04-28T05:33:28;11.93;;;7.80;;
70981;SDS011;58640;51.320;9.456;2023-04-28T05:35:53;13.05;;;7.80;;
70981;SDS011;58640;51.320;9.456;2023-04-28T05:38:19;15.55;;;8.60;;
70981;SDS011;58640;51.320;9.456;2023-04-28T05:40:44;12.30;;;7.85;;
70981;SDS011;58640;51.320;9.456;2023-04-28T05:43:10;13.85;;;8.68;;
70981;SDS011;58640;51.320;9.456;2023-04-28T05:45:35;11.70;;;7.88;;
70981;SDS011;58640;51.320;9.456;2023-04-28T05:48:01;14.43;;;8.30;;
70981;SDS011;58640;51.320;9.456;2023-04-28T05:50:26;14.25;;;9.27;;
70981;SDS011;58640;51.320;9.456;2023-04-28T05:52:52;12.52;;;8.25;;
70981;SDS011;58640;51.320;9.456;2023-04-28T05:55:18;16.25;;;8.75;;
70981;SDS011;58640;51.320;9.456;2023-04-28T05:57:43;13.82;;;7.53;;
70981;SDS011;58640;51.320;9.456;2023-04-28T06:00:09;13.25;;;8.80;;
70981;SDS011;58640;51.320;9.456;2023-04-28T06:02:34;14.23;;;8.48;;
70981;SDS011;58640;51.320;9.456;2023-04-28T06:05:00;12.88;;;9.10;;
70981;SDS011;58640;51.320;9.456;2023-04-28T06:07:25;16.73;;;9.27;;
70981;SDS011;58640;51.320;9.456;2023-04-28T06:09:51;14.73;;;8.55;;
70981;SDS011;58640;51.320;9.456;2023-04-28T06:12:16;13.57;;;8.45;;
70981;SDS011;58640;51.320;9.456;2023-04-28T06:14:41;15.80;;;9.35;;
70981;SDS011;58640;51.320;9.456;2023-04-28T06:17:07;14.05;;;8.95;;
70981;SDS011;58640;51.320;9.456;2023-04-28T06:19:32;17.35;;;9.98;;
70981;SDS011;58640;51.320;9.456;2023-04-28T06:21:58;15.80;;;9.95;;
70981;SDS011;58640;51.320;9.456;2023-04-28T06:24:23;11.38;;;8.40;;
70981;SDS011;58640;51.320;9.456;2023-04-28T06:26:49;18.48;;;8.68;;
70981;SDS011;58640;51.320;9.456;2023-04-28T06:29:14;16.25;;;9.20;;
70981;SDS011;58640;51.320;9.456;2023-04-28T06:31:40;12.60;;;8.15;;
70981;SDS011;58640;51.320;9.456;2023-04-28T06:34:05;11.55;;;7.80;;
70981;SDS011;58640;51.320;9.456;2023-04-28T06:36:31;16.95;;;8.73;;
70981;SDS011;58640;51.320;9.456;2023-04-28T06:38:56;13.00;;;8.68;;
70981;SDS011;58640;51.320;9.456;2023-04-28T06:41:22;16.83;;;8.82;;
70981;SDS011;58640;51.320;9.456;2023-04-28T06:43:48;16.20;;;8.75;;
70981;SDS011;58640;51.320;9.456;2023-04-28T06:46:14;14.93;;;8.60;;
70981;SDS011;58640;51.320;9.456;2023-04-28T06:48:40;19.15;;;9.00;;
70981;SDS011;58640;51.320;9.456;2023-04-28T06:51:05;14.95;;;8.90;;
70981;SDS011;58640;51.320;9.456;2023-04-28T06:53:31;14.93;;;8.80;;
70981;SDS011;58640;51.320;9.456;2023-04-28T06:55:56;14.27;;;8.98;;
70981;SDS011;58640;51.320;9.456;2023-04-28T06:58:22;14.15;;;9.50;;
70981;SDS011;58640;51.320;9.456;2023-04-28T07:00:47;13.73;;;8.45;;
70981;SDS011;58640;51.320;9.456;2023-04-28T07:03:12;14.68;;;9.13;;
70981;SDS011;58640;51.320;9.456;2023-04-28T07:05:38;15.15;;;9.57;;
70981;SDS011;58640;51.320;9.456;2023-04-28T07:08:05;13.35;;;9.45;;
70981;SDS011;58640;51.320;9.456;2023-04-28T07:10:30;13.88;;;9.48;;
70981;SDS011;58640;51.320;9.456;2023-04-28T07:12:56;18.05;;;9.25;;
70981;SDS011;58640;51.320;9.456;2023-04-28T07:15:21;15.32;;;8.95;;
70981;SDS011;58640;51.320;9.456;2023-04-28T07:17:47;18.75;;;8.98;;
70981;SDS011;58640;51.320;9.456;2023-04-28T07:20:13;14.07;;;9.48;;
70981;SDS011;58640;51.320;9.456;2023-04-28T07:22:38;23.23;;;9.50;;
70981;SDS011;58640;51.320;9.456;2023-04-28T07:25:04;18.13;;;9.70;;
70981;SDS011;58640;51.320;9.456;2023-04-28T07:27:30;14.38;;;9.32;;
70981;SDS011;58640;51.320;9.456;2023-04-28T07:29:56;12.40;;;9.63;;
70981;SDS011;58640;51.320;9.456;2023-04-28T07:32:21;14.95;;;9.45;;
70981;SDS011;58640;51.320;9.456;2023-04-28T07:34:48;15.90;;;9.07;;
70981;SDS011;58640;51.320;9.456;2023-04-28T07:37:13;18.02;;;9.80;;
70981;SDS011;58640;51.320;9.456;2023-04-28T07:39:39;18.48;;;10.07;;
70981;SDS011;58640;51.320;9.456;2023-04-28T07:42:05;15.88;;;8.93;;
70981;SDS011;58640;51.320;9.456;2023-04-28T07:44:31;14.98;;;9.18;;
70981;SDS011;58640;51.320;9.456;2023-04-28T07:46:57;14.15;;;8.73;;
70981;SDS011;58640;51.320;9.456;2023-04-28T07:49:23;13.98;;;10.13;;
70981;SDS011;58640;51.320;9.456;2023-04-28T07:51:48;15.43;;;9.40;;
70981;SDS011;58640;51.320;9.456;2023-04-28T07:54:16;17.05;;;10.82;;
70981;SDS011;58640;51.320;9.456;2023-04-28T07:56:41;13.93;;;10.27;;
70981;SDS011;58640;51.320;9.456;2023-04-28T07:59:06;13.48;;;9.95;;
70981;SDS011;58640;51.320;9.456;2023-04-28T08:01:32;11.60;;;9.82;;
70981;SDS011;58640;51.320;9.456;2023-04-28T08:03:57;17.50;;;9.52;;
70981;SDS011;58640;51.320;9.456;2023-04-28T08:06:22;15.93;;;9.93;;
70981;SDS011;58640;51.320;9.456;2023-04-28T08:08:48;16.30;;;10.52;;
70981;SDS011;58640;51.320;9.456;2023-04-28T08:11:13;17.40;;;10.63;;
70981;SDS011;58640;51.320;9.456;2023-04-28T08:13:38;22.70;;;11.18;;
70981;SDS011;58640;51.320;9.456;2023-04-28T08:16:04;16.10;;;11.27;;
70981;SDS011;58640;51.320;9.456;2023-04-28T08:18:30;18.10;;;11.15;;
70981;SDS011;58640;51.320;9.456;2023-04-28T08:20:56;15.05;;;10.73;;
70981;SDS011;58640;51.320;9.456;2023-04-28T08:23:21;20.67;;;10.77;;
70981;SDS011;58640;51.320;9.456;2023-04-28T08:25:46;15.60;;;10.75;;
70981;SDS011;58640;51.320;9.456;2023-04-28T08:28:13;18.83;;;11.32;;
70981;SDS011;58640;51.320;9.456;2023-04-28T08:30:39;18.55;;;10.52;;
70981;SDS011;58640;51.320;9.456;2023-04-28T08:33:05;14.45;;;9.98;;
70981;SDS011;58640;51.320;9.456;2023-04-28T08:35:30;18.13;;;10.18;;
70981;SDS011;58640;51.320;9.456;2023-04-28T08:37:55;16.27;;;10.57;;
70981;SDS011;58640;51.320;9.456;2023-04-28T08:40:21;12.77;;;9.48;;
70981;SDS011;58640;51.320;9.456;2023-04-28T08:42:48;12.00;;;9.25;;
70981;SDS011;58640;51.320;9.456;2023-04-28T08:45:13;19.05;;;10.80;;
70981;SDS011;58640;51.320;9.456;2023-04-28T08:47:39;14.40;;;10.45;;
70981;SDS011;58640;51.320;9.456;2023-04-28T08:50:09;16.15;;;11.35;;
70981;SDS011;58640;51.320;9.456;2023-04-28T08:52:36;12.98;;;10.45;;
70981;SDS011;58640;51.320;9.456;2023-04-28T08:55:09;13.45;;;9.48;;
70981;SDS011;58640;51.320;9.456;2023-04-28T08:57:40;16.42;;;9.57;;
70981;SDS011;58640;51.320;9.456;2023-04-28T09:00:08;18.05;;;10.10;;
70981;SDS011;58640;51.320;9.456;2023-04-28T09:02:35;15.38;;;9.57;;
70981;SDS011;58640;51.320;9.456;2023-04-28T09:05:02;16.50;;;9.95;;
70981;SDS011;58640;51.320;9.456;2023-04-28T09:07:28;13.40;;;9.43;;
70981;SDS011;58640;51.320;9.456;2023-04-28T09:12:41;13.07;;;9.25;;
70981;SDS011;58640;51.320;9.456;2023-04-28T09:15:07;14.13;;;9.02;;
70981;SDS011;58640;51.320;9.456;2023-04-28T09:17:45;11.07;;;7.75;;
70981;SDS011;58640;51.320;9.456;2023-04-28T09:20:18;16.27;;;9.68;;
70981;SDS011;58640;51.320;9.456;2023-04-28T09:22:45;11.50;;;9.10;;
70981;SDS011;58640;51.320;9.456;2023-04-28T09:25:10;12.23;;;9.20;;
70981;SDS011;58640;51.320;9.456;2023-04-28T09:27:36;15.13;;;9.43;;
70981;SDS011;58640;51.320;9.456;2023-04-28T09:30:02;15.10;;;9.45;;
70981;SDS011;58640;51.320;9.456;2023-04-28T09:32:28;16.75;;;9.85;;
70981;SDS011;58640;51.320;9.456;2023-04-28T09:34:54;16.02;;;9.75;;
70981;SDS011;58640;51.320;9.456;2023-04-28T09:37:24;15.05;;;9.23;;
70981;SDS011;58640;51.320;9.456;2023-04-28T09:40:08;15.38;;;10.63;;
70981;SDS011;58640;51.320;9.456;2023-04-28T09:45:07;15.60;;;8.40;;
70981;SDS011;58640;51.320;9.456;2023-04-28T09:47:35;16.10;;;9.32;;
70981;SDS011;58640;51.320;9.456;2023-04-28T09:50:02;13.65;;;8.93;;
70981;SDS011;58640;51.320;9.456;2023-04-28T09:52:30;14.43;;;9.48;;
70981;SDS011;58640;51.320;9.456;2023-04-28T09:54:57;16.73;;;9.15;;
70981;SDS011;58640;51.320;9.456;2023-04-28T09:57:23;11.70;;;7.95;;
70981;SDS011;58640;51.320;9.456;2023-04-28T09:59:49;10.07;;;7.90;;
70981;SDS011;58640;51.320;9.456;2023-04-28T10:02:16;11.95;;;8.27;;
70981;SDS011;58640;51.320;9.456;2023-04-28T10:04:44;8.95;;;7.32;;
70981;SDS011;58640;51.320;9.456;2023-04-28T10:07:11;13.18;;;8.27;;
70981;SDS011;58640;51.320;9.456;2023-04-28T10:09:38;11.02;;;8.40;;
70981;SDS011;58640;51.320;9.456;2023-04-28T10:12:07;13.43;;;8.02;;
70981;SDS011;58640;51.320;9.456;2023-04-28T10:14:34;10.93;;;7.60;;
70981;SDS011;58640;51.320;9.456;2023-04-28T10:17:01;17.35;;;9.88;;
70981;SDS011;58640;51.320;9.456;2023-04-28T10:19:29;16.52;;;9.18;;
70981;SDS011;58640;51.320;9.456;2023-04-28T10:21:59;13.20;;;8.45;;
70981;SDS011;58640;51.320;9.456;2023-04-28T10:24:45;13.35;;;8.45;;
70981;SDS011;58640;51.320;9.456;2023-04-28T10:27:17;15.80;;;8.60;;
70981;SDS011;58640;51.320;9.456;2023-04-28T10:29:43;15.18;;;9.75;;
70981;SDS011;58640;51.320;9.456;2023-04-28T10:32:21;17.25;;;10.18;;
70981;SDS011;58640;51.320;9.456;2023-04-28T10:34:52;19.90;;;9.88;;
70981;SDS011;58640;51.320;9.456;2023-04-28T10:40:44;17.77;;;9.32;;
70981;SDS011;58640;51.320;9.456;2023-04-28T10:43:11;16.92;;;9.73;;
70981;SDS011;58640;51.320;9.456;2023-04-28T10:56:10;17.48;;;9.32;;
70981;SDS011;58640;51.320;9.456;2023-04-28T10:58:51;15.48;;;9.40;;
70981;SDS011;58640;51.320;9.456;2023-04-28T11:06:21;14.25;;;9.38;;
70981;SDS011;58640;51.320;9.456;2023-04-28T11:08:50;13.60;;;8.63;;
70981;SDS011;58640;51.320;9.456;2023-04-28T11:11:19;15.23;;;8.85;;
70981;SDS011;58640;51.320;9.456;2023-04-28T11:13:46;17.02;;;9.43;;
70981;SDS011;58640;51.320;9.456;2023-04-28T11:16:14;15.23;;;10.15;;
70981;SDS011;58640;51.320;9.456;2023-04-28T11:21:23;15.38;;;8.77;;
70981;SDS011;58640;51.320;9.456;2023-04-28T11:23:50;14.80;;;8.55;;
70981;SDS011;58640;51.320;9.456;2023-04-28T11:26:16;13.13;;;8.05;;
70981;SDS011;58640;51.320;9.456;2023-04-28T11:28:47;14.55;;;8.98;;
70981;SDS011;58640;51.320;9.456;2023-04-28T11:31:12;14.32;;;8.38;;
70981;SDS011;58640;51.320;9.456;2023-04-28T11:33:43;13.35;;;8.07;;
70981;SDS011;58640;51.320;9.456;2023-04-28T11:36:23;11.52;;;8.65;;
70981;SDS011;58640;51.320;9.456;2023-04-28T11:38:49;13.73;;;8.60;;
70981;SDS011;58640;51.320;9.456;2023-04-28T11:41:14;12.55;;;8.23;;
70981;SDS011;58640;51.320;9.456;2023-04-28T11:43:40;14.18;;;9.07;;
70981;SDS011;58640;51.320;9.456;2023-04-28T11:46:08;14.23;;;9.30;;
70981;SDS011;58640;51.320;9.456;2023-04-28T11:48:34;16.30;;;8.18;;
70981;SDS011;58640;51.320;9.456;2023-04-28T11:51:00;19.30;;;9.77;;
70981;SDS011;58640;51.320;9.456;2023-04-28T11:53:41;17.52;;;8.40;;
70981;SDS011;58640;51.320;9.456;2023-04-28T11:56:07;11.98;;;8.93;;
70981;SDS011;58640;51.320;9.456;2023-04-28T11:58:33;14.63;;;9.13;;
70981;SDS011;58640;51.320;9.456;2023-04-28T12:01:05;15.95;;;9.95;;
70981;SDS011;58640;51.320;9.456;2023-04-28T12:03:44;11.90;;;7.97;;
70981;SDS011;58640;51.320;9.456;2023-04-28T12:06:10;11.85;;;9.10;;
70981;SDS011;58640;51.320;9.456;2023-04-28T12:08:35;17.75;;;9.38;;
70981;SDS011;58640;51.320;9.456;2023-04-28T12:11:07;13.30;;;8.93;;
70981;SDS011;58640;51.320;9.456;2023-04-28T12:13:34;18.40;;;8.68;;
70981;SDS011;58640;51.320;9.456;2023-04-28T12:16:00;10.93;;;8.13;;
70981;SDS011;58640;51.320;9.456;2023-04-28T12:18:31;11.50;;;8.48;;
70981;SDS011;58640;51.320;9.456;2023-04-28T12:21:00;17.17;;;9.52;;
70981;SDS011;58640;51.320;9.456;2023-04-28T12:25:55;14.52;;;9.82;;
70981;SDS011;58640;51.320;9.456;2023-04-28T12:28:21;11.77;;;8.65;;
70981;SDS011;58640;51.320;9.456;2023-04-28T12:30:47;16.77;;;8.75;;
70981;SDS011;58640;51.320;9.456;2023-04-28T12:33:22;14.48;;;9.43;;
70981;SDS011;58640;51.320;9.456;2023-04-28T12:35:51;15.00;;;9.30;;
70981;SDS011;58640;51.320;9.456;2023-04-28T12:38:18;15.75;;;8.95;;
70981;SDS011;58640;51.320;9.456;2023-04-28T12:40:44;13.05;;;8.50;;
70981;SDS011;58640;51.320;9.456;2023-04-28T12:43:10;12.32;;;8.70;;
70981;SDS011;58640;51.320;9.456;2023-04-28T12:45:36;14.52;;;9.38;;
70981;SDS011;58640;51.320;9.456;2023-04-28T12:48:01;13.38;;;9.40;;
70981;SDS011;58640;51.320;9.456;2023-04-28T12:50:27;11.63;;;7.93;;
70981;SDS011;58640;51.320;9.456;2023-04-28T12:52:56;13.18;;;9.30;;
70981;SDS011;58640;51.320;9.456;2023-04-28T12:55:21;15.20;;;9.60;;
70981;SDS011;58640;51.320;9.456;2023-04-28T12:57:47;16.25;;;9.93;;
70981;SDS011;58640;51.320;9.456;2023-04-28T13:00:12;19.98;;;9.60;;
70981;SDS011;58640;51.320;9.456;2023-04-28T13:02:40;17.88;;;9.40;;
70981;SDS011;58640;51.320;9.456;2023-04-28T13:05:06;14.10;;;10.05;;
70981;SDS011;58640;51.320;9.456;2023-04-28T13:07:33;14.00;;;10.10;;
70981;SDS011;58640;51.320;9.456;2023-04-28T13:09:58;17.65;;;10.48;;
70981;SDS011;58640;51.320;9.456;2023-04-28T13:12:24;16.40;;;10.20;;
70981;SDS011;58640;51.320;9.456;2023-04-28T13:14:49;13.43;;;9.82;;
70981;SDS011;58640;51.320;9.456;2023-04-28T13:17:15;13.82;;;10.30;;
70981;SDS011;58640;51.320;9.456;2023-04-28T13:19:40;13.63;;;8.90;;
70981;SDS011;58640;51.320;9.456;2023-04-28T13:22:06;13.93;;;10.68;;
70981;SDS011;58640;51.320;9.456;2023-04-28T13:24:33;15.60;;;10.13;;
70981;SDS011;58640;51.320;9.456;2023-04-28T13:26:59;13.73;;;10.82;;
70981;SDS011;58640;51.320;9.456;2023-04-28T13:29:27;14.90;;;10.32;;
70981;SDS011;58640;51.320;9.456;2023-04-28T13:31:53;14.52;;;10.23;;
70981;SDS011;58640;51.320;9.456;2023-04-28T13:34:18;16.60;;;9.90;;
70981;SDS011;58640;51.320;9.456;2023-04-28T13:36:43;12.15;;;9.38;;
70981;SDS011;58640;51.320;9.456;2023-04-28T13:39:09;11.52;;;9.27;;
70981;SDS011;58640;51.320;9.456;2023-04-28T13:41:36;13.68;;;9.85;;
70981;SDS011;58640;51.320;9.456;2023-04-28T13:44:01;11.30;;;9.32;;
70981;SDS011;58640;51.320;9.456;2023-04-28T13:46:27;13.98;;;9.73;;
70981;SDS011;58640;51.320;9.456;2023-04-28T13:48:53;15.95;;;10.52;;
70981;SDS011;58640;51.320;9.456;2023-04-28T13:51:18;15.00;;;11.00;;
70981;SDS011;58640;51.320;9.456;2023-04-28T13:53:44;15.68;;;10.80;;
70981;SDS011;58640;51.320;9.456;2023-04-28T13:56:09;18.73;;;11.45;;
70981;SDS011;58640;51.320;9.456;2023-04-28T13:58:35;14.98;;;11.32;;
70981;SDS011;58640;51.320;9.456;2023-04-28T14:01:01;16.70;;;12.10;;
70981;SDS011;58640;51.320;9.456;2023-04-28T14:03:27;15.38;;;9.80;;
70981;SDS011;58640;51.320;9.456;2023-04-28T14:05:54;15.38;;;10.15;;
70981;SDS011;58640;51.320;9.456;2023-04-28T14:08:21;20.25;;;10.50;;
70981;SDS011;58640;51.320;9.456;2023-04-28T14:10:47;18.17;;;11.05;;
70981;SDS011;58640;51.320;9.456;2023-04-28T14:13:13;16.52;;;12.00;;
70981;SDS011;58640;51.320;9.456;2023-04-28T14:15:39;14.82;;;10.93;;
70981;SDS011;58640;51.320;9.456;2023-04-28T14:18:05;16.90;;;11.07;;
70981;SDS011;58640;51.320;9.456;2023-04-28T14:20:31;15.20;;;11.48;;
70981;SDS011;58640;51.320;9.456;2023-04-28T14:22:57;14.32;;;10.48;;
70981;SDS011;58640;51.320;9.456;2023-04-28T14:25:22;18.67;;;10.73;;
70981;SDS011;58640;51.320;9.456;2023-04-28T14:27:48;13.57;;;10.15;;
70981;SDS011;58640;51.320;9.456;2023-04-28T14:30:14;17.17;;;9.40;;
70981;SDS011;58640;51.320;9.456;2023-04-28T14:32:41;14.57;;;10.38;;
70981;SDS011;58640;51.320;9.456;2023-04-28T14:35:06;14.90;;;10.60;;
70981;SDS011;58640;51.320;9.456;2023-04-28T14:37:32;14.82;;;9.93;;
70981;SDS011;58640;51.320;9.456;2023-04-28T14:39:59;19.55;;;12.35;;
70981;SDS011;58640;51.320;9.456;2023-04-28T14:42:27;19.95;;;13.80;;
70981;SDS011;58640;51.320;9.456;2023-04-28T14:44:54;18.95;;;11.85;;
70981;SDS011;58640;51.320;9.456;2023-04-28T14:47:19;16.20;;;10.48;;
70981;SDS011;58640;51.320;9.456;2023-04-28T14:49:45;12.48;;;9.48;;
70981;SDS011;58640;51.320;9.456;2023-04-28T14:52:11;15.13;;;10.57;;
70981;SDS011;58640;51.320;9.456;2023-04-28T14:54:37;14.75;;;10.43;;
70981;SDS011;58640;51.320;9.456;2023-04-28T14:57:03;15.60;;;10.30;;